SILO ALERT LOG


Silo ID Alert Type Alert Message Silo Type Points Depth (mm) Strength Temperature (°C) Humidity (%) Height (mm) Volume (㎥) Weight (t) Flag Time
DJSAD16 Humidity 습도센서 측정값이 80% 초과 93 6262 3364 3.4 80.8 1317 131.186 82.936 11 2024-01-11 10:39:32.000
DJSSD09 Temperature 온도센서 측정값이 0도 미만 116 2970 3389 -45.4 0 4709 655.511 414.414 11 2024-01-11 10:39:32.000
DJHNR11 Temperature 온도센서 측정값이 0도 미만 호퍼 235 4407 483 -1.2 76.7 5972 74.878 47.338 11 2024-01-11 10:39:32.000
DJHNR01 Humidity 습도센서 측정값이 80% 초과 호퍼 471 4299 5046 3.6 99.9 11080 473.426 299.3 13 2024-01-11 10:39:32.000
DJSAD12 Humidity 습도센서 측정값이 80% 초과 0 7700 0 2.4 86.8 -120 -17.075 0 31 2024-01-11 10:39:32.000
DJSAD18 Humidity 습도센서 측정값이 80% 초과 115 1298 5783 3.8 80.8 6281 625.515 395.451 11 2024-01-11 10:39:31.000
DJSSD11 Humidity 습도센서 측정값이 80% 초과 호퍼 441 7373 149 3.7 83.6 3856 29.252 15.943 0 2024-01-11 10:39:31.000
DJDJD04 Humidity 습도센서 측정값이 80% 초과 278 4202 4407 2.8 82.1 3477 421.351 266.378 11 2024-01-11 10:39:31.000
DJDJD01 Humidity 습도센서 측정값이 80% 초과 94 6940 3931 1 80.7 739 89.59 56.639 0 2024-01-11 10:39:30.000
DJSAD17 Humidity 습도센서 측정값이 80% 초과 441 3136 4861 3.1 80.6 4443 442.502 279.75 0 2024-01-11 10:39:30.000
DJSSD12 Temperature 온도센서 상태 이상 호퍼 0 11350 0 -999 -999 -120 0 0 31 2024-01-11 10:39:24.000
DJHNR03 Temperature 온도센서 상태 이상 호퍼 0 15500 0 -999 -999 -119 0 0 31 2024-01-11 10:39:23.000
DJHNR12 Humidity 습도센서 측정값이 80% 초과 호퍼 0 10500 0 0.2 82.8 -120 0 0 31 2024-01-11 10:39:23.000
DJSAD03 Humidity 습도센서 측정값이 80% 초과 448 1661 6011 1.2 84.5 7118 294.692 186.304 0 2024-01-11 09:39:41.000
DJHNR08 Temperature 온도센서 측정값이 0도 미만 345 836 2295 -0.6 68.4 6843 973.73 550 11 2024-01-11 09:39:39.000
DJDJD03 Humidity 습도센서 측정값이 80% 초과 58 4760 5003 1.4 80.8 2919 353.73 223.628 0 2024-01-11 09:39:39.000
DJSAD01 Humidity 습도센서 측정값이 80% 초과 483 1517 7192 0.5 88.6 7262 300.661 190.078 0 2024-01-11 09:39:39.000
DJSAD08 Humidity 습도센서 측정값이 80% 초과 0 7700 3956 12.8 81.2 -120 -17.075 0 12 2024-01-11 09:39:38.000
DJSAD02 Humidity 습도센서 측정값이 80% 초과 382 1127 4310 1.2 88.2 7652 316.777 200.266 11 2024-01-11 09:39:38.000
DJSAD11 Humidity 습도센서 측정값이 80% 초과 334 1647 3279 0.5 80.6 5932 844.206 533.707 11 2024-01-11 09:39:35.000

[첫 페이지] [9998] [9999] [10000] [10001] 10002 [10003] [10004] [10005] [10006] [마지막 페이지]